Aérodrome :
LOGIN :

S'inscrire | Disclaimer

   EN    FR    IT 

 










Légende :    VFR   VFR Marginal   IFR   IFR Intensif   IFR Très Intensif
Visi : 
Plafond : 
>= 8 km
>= 3000ft
5 à 8 km
1000 à 3000 ft
1500m à 5 km
500 à 1000 ft
800 à 1500m
200 à 500 ft
< 800m
< 200 ft
Symboles :   Orages  Brouillard  Fortes neiges  Fortes précipitations  Vent > 20 kt
SIGMETs :   Divers  Orages  Givrage  Turbulence  Onde Orograph.  Cendres Volcan.







- Altitude de l'aérodrome : 124 ft
- Code IATA : RNS
- Voir les cartes d'approche


LFRN - Rennes

DERNIER METAR :
  • 171700Z AUTO 22009KT 190V260 9999 BKN016 BKN031 OVC054 22/18 Q1016 TEMPO 4000 SHRA BKN007

METARs EXPIRÉS :
  • 171630Z AUTO 20011KT 9999 BKN016 BKN030 OVC054 22/18 Q1016 TEMPO 4000 SHRA BKN007
  • 171600Z AUTO 22010KT 180V250 9999 FEW018 BKN040 OVC056 22/18 Q1016 TEMPO 4000 SHRA BKN007
  • 171530Z AUTO 21010KT 9999 SCT016 BKN029 BKN041 22/19 Q1016 TEMPO 4000 SHRA BKN007
  • 171500Z AUTO 22009KT 9999 FEW016 BKN033 BKN050 21/19 Q1016 TEMPO 4000 SHRA BKN014
  • 171430Z AUTO 21010KT 180V250 9999 SCT022 BKN028 BKN041 23/19 Q1016 TEMPO 4000 SHRA BKN014

TAF TAF LFRN
Valide du 17 à 12h jusqu'au 18 à 12h UTC


171100Z 1712/1812 23010KT 9999 BKN020
TEMPO 1712/1717 4000 SHRA BKN014
BECMG 1717/1719 BKN012
TEMPO 1717/1804 4000 SHRA BKN007
TEMPO 1722/1804 2500 +SHRA BKN003
BECMG 1803/1805 28010KT BKN020
TEMPO 1804/1806 BKN008
ATIS : +33 2 99 67 72 50
Pas de NOTAMs connus pour ce terrain.



MET'MAP, la Météo Aéronautique d'un coup d'oeil ! - Copyright ORBIFLY Décembre 2007 - Disclaimer

ORBIFLY MET'MAP TEAM :

Programmation & Développement : Alexandra Zaïnal
Conception & Développement : Baudouin d'Aumeries
Co-Programmation & Développement : Marc-Olivier Méhu
Soutien technique & logistique : Manuel Goepfert

Contact : metmap@orbifly.com




SOURCES & CREDITS :

   NOAA